Time;durP1;ratioP1;P1;durP2;ratioP2;P2;SDS_P1;SDS_P2;PMS_P1;PMS_P2;Temp;Humidity;BMP_temperature;BMP_pressure;BME280_temperature;BME280_humidity;BME280_pressure;Samples;Min_cycle;Max_cycle;Signal;HPM_P1;HPM_P2
2022/01/24 00:01:22;;;;;;;1.20;1.05;;;;;;;17.51;45.12;103498.50;5104083;28;20053;-58
2022/01/24 00:03:47;;;;;;;1.02;0.93;;;;;;;17.47;45.07;103495.16;5104211;28;20046;-58
2022/01/24 00:06:15;;;;;;;1.27;1.17;;;;;;;17.48;45.21;103502.25;5103731;28;20052;-59
2022/01/24 00:08:41;;;;;;;0.85;0.82;;;;;;;17.48;45.11;103502.25;5103700;28;20039;-58
2022/01/24 00:11:10;;;;;;;0.90;0.90;;;;;;;17.48;45.05;103502.25;5103624;28;20144;-58
2022/01/24 00:14:21;;;;;;;;;;;;;;;17.45;45.08;103497.06;5103721;28;20036;-58
2022/01/24 00:16:56;;;;;;;1.10;1.00;;;;;;;17.44;45.10;103490.81;5103688;28;19916;-57
2022/01/24 00:27:14;;;;;;;1.20;1.10;;;;;;;17.41;45.06;103482.91;5103109;28;20027;-58
2022/01/24 00:29:39;;;;;;;1.20;1.10;;;;;;;17.41;45.17;103488.31;5103717;28;20040;-58
2022/01/24 00:32:05;;;;;;;1.00;1.00;;;;;;;17.39;44.82;103484.88;5095838;28;20112;-57
2022/01/24 00:34:30;;;;;;;1.13;1.02;;;;;;;17.41;45.24;103482.91;5103899;28;20028;-58
2022/01/24 00:36:56;;;;;;;1.08;0.98;;;;;;;17.38;45.05;103472.38;5102834;28;20029;-58
2022/01/24 00:39:22;;;;;;;0.90;0.90;;;;;;;17.41;45.12;103479.38;5103600;28;20028;-58
2022/01/24 00:47:04;;;;;;;0.90;0.90;;;;;;;17.40;45.21;103475.81;5103231;28;20551;-58
2022/01/24 00:54:59;;;;;;;1.10;1.00;;;;;;;17.33;45.07;103468.22;5102371;28;20085;-57
2022/01/24 00:57:25;;;;;;;1.20;1.10;;;;;;;17.37;45.01;103473.31;5102584;28;20062;-57
2022/01/24 00:59:50;;;;;;;0.90;0.90;;;;;;;17.38;45.01;103482.28;5103290;28;20036;-58
2022/01/24 01:02:16;;;;;;;2.88;1.73;;;;;;;17.37;45.06;103476.00;5103056;28;20032;-58
2022/01/24 01:07:07;;;;;;;1.13;1.00;;;;;;;17.37;45.01;103472.47;5102531;28;20054;-57
2022/01/24 01:20:38;;;;;;;1.15;1.00;;;;;;;17.34;44.92;103467.28;5086292;28;20049;-57
2022/01/24 01:23:03;;;;;;;0.90;0.90;;;;;;;17.32;44.88;103467.38;5096059;28;20031;-57
2022/01/24 01:25:29;;;;;;;1.65;0.95;;;;;;;17.33;44.87;103473.59;5102405;28;20119;-56
2022/01/24 01:27:56;;;;;;;1.90;1.30;;;;;;;17.32;44.88;103474.56;5102405;28;20060;-57
2022/01/24 01:30:32;;;;;;;1.45;1.23;;;;;;;17.30;45.11;103468.44;5103282;28;20084;-57
2022/01/24 01:33:06;;;;;;;0.80;0.80;;;;;;;17.30;44.96;103466.63;5102896;28;20047;-56
2022/01/24 01:36:05;;;;;;;1.33;1.10;;;;;;;17.28;45.03;103465.84;5102861;28;20032;-57
2022/01/24 01:38:46;;;;;;;1.15;1.05;;;;;;;17.28;45.06;103468.53;5102735;28;20031;-57
2022/01/24 01:52:20;;;;;;;1.10;1.00;;;;;;;17.25;45.03;103463.34;5102152;28;20404;-57
2022/01/24 01:52:36;;;;;;;0.90;0.90;;;;;;;17.24;44.85;103461.59;5102693;28;20038;-57
2022/01/24 01:55:15;;;;;;;1.10;1.05;;;;;;;17.22;44.87;103452.78;5086844;28;20028;-55
2022/01/24 01:57:40;;;;;;;1.33;1.10;;;;;;;17.20;44.97;103457.38;5102282;28;20055;-57
2022/01/24 02:00:07;;;;;;;1.35;1.05;;;;;;;17.21;45.06;103453.75;5102688;28;20028;-56
2022/01/24 02:02:32;;;;;;;1.10;1.00;;;;;;;17.19;44.98;103455.66;5084533;28;20028;-57
2022/01/24 02:04:57;;;;;;;1.10;1.00;;;;;;;17.17;45.03;103449.53;5102587;28;20031;-57
2022/01/24 02:07:23;;;;;;;1.33;1.20;;;;;;;17.17;45.03;103441.47;5083986;28;20031;-57
2022/01/24 02:09:48;;;;;;;1.58;1.08;;;;;;;17.16;44.80;103447.78;5102031;28;20032;-56
2022/01/24 02:12:17;;;;;;;1.25;1.10;;;;;;;17.15;44.96;103444.22;5102349;28;20058;-57
2022/01/24 02:14:49;;;;;;;1.50;1.30;;;;;;;17.15;45.01;103444.22;5103056;28;20038;-57
2022/01/24 02:17:21;;;;;;;1.08;0.85;;;;;;;17.15;44.89;103440.66;5102494;28;20028;-57
2022/01/24 02:20:40;;;;;;;1.67;1.38;;;;;;;17.14;44.98;103447.88;5092636;28;20107;-56
2022/01/24 02:22:43;;;;;;;1.40;1.30;;;;;;;17.13;44.93;103445.28;5087858;28;20047;-57
2022/01/24 02:25:22;;;;;;;1.42;1.23;;;;;;;17.09;44.49;103436.56;5104936;28;20079;-57
2022/01/24 02:27:54;;;;;;;1.50;1.40;;;;;;;17.10;44.99;103438.28;5105928;28;20020;-56
2022/01/24 02:33:03;;;;;;;1.95;1.42;;;;;;;17.08;44.91;103425.91;5106124;28;20078;-57
2022/01/24 02:35:29;;;;;;;1.63;1.15;;;;;;;17.08;44.96;103433.97;5105601;28;20480;-57
2022/01/24 02:37:56;;;;;;;1.30;1.20;;;;;;;17.07;44.95;103433.06;5105478;28;20047;-57
2022/01/24 02:40:23;;;;;;;1.60;1.50;;;;;;;17.05;44.87;103428.78;5104752;28;20031;-57
2022/01/24 02:48:27;;;;;;;1.45;1.35;;;;;;;17.06;45.06;103425.13;5105764;28;20028;-57
2022/01/24 02:53:35;;;;;;;1.40;1.30;;;;;;;17.02;45.02;103412.84;5105494;28;20118;-57
2022/01/24 02:56:01;;;;;;;1.58;1.48;;;;;;;17.01;44.94;103413.81;5082824;28;20049;-57
2022/01/24 02:58:27;;;;;;;1.70;1.50;;;;;;;17.03;45.06;103418.09;5084790;28;20032;-57
2022/01/24 03:00:53;;;;;;;1.52;1.23;;;;;;;17.03;45.03;103415.41;5085113;28;20028;-57
2022/01/24 03:03:18;;;;;;;1.45;1.35;;;;;;;17.03;44.91;103417.25;5085021;28;20028;-56
2022/01/24 03:05:44;;;;;;;2.00;1.70;;;;;;;17.03;44.97;103420.78;5085231;28;20028;-57
2022/01/24 03:08:09;;;;;;;1.77;1.65;;;;;;;17.02;44.91;103419.06;5084426;28;20048;-57
2022/01/24 03:10:44;;;;;;;1.75;1.35;;;;;;;17.02;45.01;103423.59;5084100;28;20024;-57
2022/01/24 03:15:42;;;;;;;1.58;1.48;;;;;;;16.99;44.74;103425.50;5084510;28;20032;-57
2022/01/24 03:18:08;;;;;;;1.73;1.50;;;;;;;16.99;44.92;103416.56;5084215;28;20038;-57
2022/01/24 03:20:33;;;;;;;1.80;1.60;;;;;;;16.94;44.90;103407.94;5084545;28;20040;-57
2022/01/24 03:22:59;;;;;;;1.30;1.20;;;;;;;16.97;44.86;103413.97;5084000;28;20040;-57
2022/01/24 03:25:25;;;;;;;2.20;2.00;;;;;;;16.93;44.97;103404.38;5087523;28;20027;-57
2022/01/24 03:27:50;;;;;;;2.03;1.83;;;;;;;16.96;44.92;103406.88;5085844;28;20021;-57
2022/01/24 03:30:15;;;;;;;1.98;1.70;;;;;;;16.96;44.87;103406.03;5084300;28;20085;-57
2022/01/24 03:32:40;;;;;;;1.75;1.50;;;;;;;16.95;44.85;103401.63;5084247;28;20017;-58
2022/01/24 03:35:07;;;;;;;1.95;1.75;;;;;;;16.94;44.91;103403.41;5084175;28;20081;-57
2022/01/24 03:37:36;;;;;;;2.10;1.80;;;;;;;16.94;44.92;103410.63;5084005;28;20028;-57
2022/01/24 03:40:03;;;;;;;1.65;1.55;;;;;;;16.93;44.93;103412.44;5083095;28;20039;-57
2022/01/24 03:42:28;;;;;;;2.25;1.75;;;;;;;16.92;45.02;103405.34;5083703;28;20052;-57
2022/01/24 03:44:58;;;;;;;2.15;1.90;;;;;;;16.91;44.98;103405.44;5083800;28;20020;-57
2022/01/24 03:49:57;;;;;;;2.03;1.73;;;;;;;16.91;44.91;103402.75;5083495;28;20036;-57
2022/01/24 03:52:22;;;;;;;1.92;1.60;;;;;;;16.89;45.08;103408.22;5083680;28;20036;-58
2022/01/24 03:54:49;;;;;;;3.00;2.08;;;;;;;16.89;44.96;103413.59;5083348;28;20032;-55
2022/01/24 03:57:16;;;;;;;1.98;1.77;;;;;;;16.88;44.94;103414.56;5083369;28;20078;-57
2022/01/24 03:59:42;;;;;;;1.80;1.67;;;;;;;16.88;44.94;103414.56;5083534;28;20472;-57
2022/01/24 04:02:08;;;;;;;2.08;1.85;;;;;;;16.86;45.02;103411.06;5083076;28;20024;-58
2022/01/24 04:04:33;;;;;;;2.17;1.88;;;;;;;16.82;44.83;103414.06;5083311;28;20048;-57
2022/01/24 04:06:59;;;;;;;2.85;1.85;;;;;;;16.84;44.94;103406.78;5082976;28;20038;-58
2022/01/24 04:09:24;;;;;;;2.08;1.80;;;;;;;16.84;45.01;103402.25;5083137;28;20112;-56
2022/01/24 04:11:53;;;;;;;2.17;1.98;;;;;;;16.84;44.89;103404.09;5083122;28;20100;-57
2022/01/24 04:14:36;;;;;;;2.53;2.13;;;;;;;16.83;44.92;103407.75;5083159;28;20428;-57
2022/01/24 04:22:14;;;;;;;2.08;1.83;;;;;;;16.82;44.98;103411.38;5083234;28;20016;-56
2022/01/24 04:24:40;;;;;;;3.03;2.30;;;;;;;16.79;45.04;103408.88;5082841;28;20086;-57
2022/01/24 04:27:06;;;;;;;2.03;1.77;;;;;;;16.81;44.83;103409.66;5087806;28;20031;-56
2022/01/24 04:29:33;;;;;;;2.58;2.30;;;;;;;16.79;44.94;103409.75;5083176;28;20028;-57
2022/01/24 04:31:58;;;;;;;2.40;1.98;;;;;;;16.78;44.94;103408.03;5083044;28;20033;-58
2022/01/24 04:34:23;;;;;;;2.80;2.22;;;;;;;16.78;44.95;103402.66;5083042;28;20060;-57
2022/01/24 04:36:49;;;;;;;2.72;2.10;;;;;;;16.73;44.95;103394.84;5082283;28;20040;-58
2022/01/24 04:39:15;;;;;;;2.65;2.15;;;;;;;16.77;45.09;103406.28;5082787;28;20082;-57
2022/01/24 04:41:44;;;;;;;2.33;2.10;;;;;;;16.75;44.89;103405.53;5082450;28;20028;-57
2022/01/24 04:47:00;;;;;;;2.67;2.25;;;;;;;16.73;44.95;103408.28;5083079;28;20029;-56
2022/01/24 04:52:23;;;;;;;2.92;2.25;;;;;;;16.71;45.02;103395.88;5082903;28;20031;-57
2022/01/24 04:54:49;;;;;;;2.92;2.42;;;;;;;16.72;44.95;103402.97;5082407;28;20039;-53
2022/01/24 04:57:25;;;;;;;2.67;2.47;;;;;;;16.71;44.98;103404.81;5102030;28;20048;-58
2022/01/24 04:59:52;;;;;;;2.67;2.33;;;;;;;16.70;45.02;103403.09;5102927;28;20028;-57
2022/01/24 05:02:20;;;;;;;3.50;2.72;;;;;;;16.71;45.15;103412.00;5102831;28;20024;-57
2022/01/24 05:04:46;;;;;;;2.75;2.25;;;;;;;16.69;44.92;103412.09;5095641;28;20031;-57
2022/01/24 05:07:11;;;;;;;2.78;2.17;;;;;;;16.69;44.99;103412.09;5102760;28;20027;-58
2022/01/24 05:09:42;;;;;;;2.65;2.38;;;;;;;16.67;45.13;103397.88;5102511;28;20036;-57
2022/01/24 05:12:17;;;;;;;2.72;2.20;;;;;;;16.69;45.03;103409.41;5102145;28;20028;-57
2022/01/24 05:25:39;;;;;;;2.72;2.28;;;;;;;16.68;44.92;103396.06;5102526;28;20093;-57
2022/01/24 05:28:04;;;;;;;2.65;2.30;;;;;;;16.67;45.00;103397.03;5102115;28;20035;-58
2022/01/24 05:30:29;;;;;;;2.85;2.58;;;;;;;16.67;45.05;103407.78;5102972;28;20020;-58
2022/01/24 05:32:54;;;;;;;4.25;2.60;;;;;;;16.66;44.94;103398.84;5102392;28;20024;-57
2022/01/24 05:35:20;;;;;;;3.00;2.25;;;;;;;16.67;45.02;103397.03;5102608;28;20520;-58
2022/01/24 05:37:45;;;;;;;3.00;2.67;;;;;;;16.64;45.06;103400.75;5102077;28;20573;-56
2022/01/24 05:40:11;;;;;;;3.20;2.40;;;;;;;16.67;45.01;103405.09;5101966;28;20032;-57
2022/01/24 05:42:36;;;;;;;3.03;2.72;;;;;;;16.64;45.04;103405.25;5095466;28;20035;-57
2022/01/24 05:45:04;;;;;;;2.88;2.60;;;;;;;16.66;44.91;103406.91;5101047;28;20036;-57
2022/01/24 05:47:29;;;;;;;2.80;2.40;;;;;;;16.67;45.17;103405.94;5093246;28;20146;-57
2022/01/24 05:49:54;;;;;;;2.75;2.22;;;;;;;16.65;45.00;103407.88;5075815;28;20484;-56
2022/01/24 05:52:19;;;;;;;3.13;2.40;;;;;;;16.66;45.14;103398.00;5098231;28;20029;-58
2022/01/24 05:54:45;;;;;;;3.00;2.70;;;;;;;16.66;45.17;103398.84;5099532;28;20039;-56
2022/01/24 05:57:10;;;;;;;3.10;2.53;;;;;;;16.66;45.05;103395.31;5096507;28;20039;-57
2022/01/24 05:59:36;;;;;;;2.88;2.50;;;;;;;16.66;45.12;103393.47;5099881;28;20064;-55
2022/01/24 06:02:03;;;;;;;3.33;2.90;;;;;;;16.67;45.12;103386.28;5095248;28;20543;-58
2022/01/24 06:04:28;;;;;;;3.03;2.55;;;;;;;16.66;45.18;103385.41;5097823;28;20070;-57
2022/01/24 06:06:53;;;;;;;3.33;2.40;;;;;;;16.66;45.21;103396.16;5088800;28;20020;-57
2022/01/24 06:09:19;;;;;;;2.95;2.50;;;;;;;16.66;45.20;103400.69;5105378;28;20245;-57
2022/01/24 06:11:44;;;;;;;3.35;2.75;;;;;;;16.66;45.33;103406.91;5100321;28;20081;-58
2022/01/24 06:14:10;;;;;;;2.45;2.22;;;;;;;16.66;45.37;103406.91;5095938;28;20031;-57
2022/01/24 06:16:35;;;;;;;3.70;2.63;;;;;;;16.63;45.31;103401.72;5085781;28;20044;-57
2022/01/24 06:19:01;;;;;;;3.15;2.85;;;;;;;16.66;45.31;103419.47;5097098;28;20016;-58
2022/01/24 06:21:26;;;;;;;2.72;2.42;;;;;;;16.66;45.41;103422.16;5103678;28;20030;-57
2022/01/24 06:23:51;;;;;;;3.20;2.90;;;;;;;16.67;45.38;103413.16;5105451;28;20023;-57
2022/01/24 06:26:16;;;;;;;4.85;3.03;;;;;;;16.66;45.35;103417.66;5104263;28;20019;-58
2022/01/24 06:28:42;;;;;;;3.13;2.63;;;;;;;16.65;45.47;103413.25;5105262;28;20046;-57
2022/01/24 06:31:07;;;;;;;3.13;2.83;;;;;;;16.63;45.42;103412.47;5089982;28;20028;-57
2022/01/24 06:33:32;;;;;;;3.88;2.92;;;;;;;16.66;45.54;103416.78;5085676;28;20024;-57
2022/01/24 06:35:58;;;;;;;3.40;2.80;;;;;;;16.64;45.54;103414.19;5085001;28;20028;-58
2022/01/24 06:38:23;;;;;;;3.30;2.97;;;;;;;16.65;45.54;103421.31;5089745;28;20074;-58
2022/01/24 06:40:49;;;;;;;3.40;2.80;;;;;;;16.65;45.54;103421.31;5087035;28;20118;-58
2022/01/24 06:43:14;;;;;;;3.00;2.67;;;;;;;16.65;45.53;103421.31;5104681;28;20035;-57
2022/01/24 06:45:39;;;;;;;3.65;2.97;;;;;;;16.66;45.61;103416.78;5105400;28;20028;-57
2022/01/24 06:48:04;;;;;;;4.28;3.03;;;;;;;16.67;45.59;103413.16;5089655;28;20036;-57
2022/01/24 06:50:30;;;;;;;3.33;3.03;;;;;;;16.65;45.48;103420.41;5085391;28;20028;-57
2022/01/24 06:52:55;;;;;;;2.85;2.55;;;;;;;16.67;45.66;103419.38;5092370;28;20082;-57
2022/01/24 06:55:20;;;;;;;2.95;2.58;;;;;;;16.67;45.41;103424.75;5096423;28;20052;-57
2022/01/24 06:57:45;;;;;;;2.83;2.53;;;;;;;16.67;45.68;103419.38;5099639;28;20092;-56
2022/01/24 07:00:11;;;;;;;3.10;2.70;;;;;;;16.67;45.66;103424.75;5100355;28;20028;-58
2022/01/24 07:02:36;;;;;;;3.08;2.40;;;;;;;16.66;45.59;103425.72;5103028;28;20044;-58
2022/01/24 07:05:02;;;;;;;4.25;2.78;;;;;;;16.68;45.68;103430.97;5102286;28;20119;-58
2022/01/24 07:07:28;;;;;;;3.95;2.92;;;;;;;16.66;45.99;103422.16;5102025;28;20036;-57
2022/01/24 07:09:54;;;;;;;3.30;3.00;;;;;;;16.70;45.76;103437.16;5102035;28;20096;-57
2022/01/24 07:12:19;;;;;;;3.00;2.58;;;;;;;16.69;46.02;103441.66;5084409;28;20061;-57
2022/01/24 07:14:45;;;;;;;2.85;2.55;;;;;;;16.69;46.24;103438.97;5102726;28;20502;-56
2022/01/24 07:17:28;;;;;;;3.42;2.70;;;;;;;16.71;45.96;103449.59;5102288;28;20028;-55
2022/01/24 07:19:53;;;;;;;3.20;2.53;;;;;;;16.72;45.88;103440.59;5100273;28;20028;-57
2022/01/24 07:22:18;;;;;;;3.17;2.88;;;;;;;16.70;46.09;103439.84;5102930;28;20123;-57
2022/01/24 07:24:44;;;;;;;3.80;3.10;;;;;;;16.74;45.93;103446.78;5102388;28;20039;-56
2022/01/24 07:27:09;;;;;;;5.35;3.00;;;;;;;16.78;45.93;103451.00;5101888;28;20111;-57
2022/01/24 07:29:34;;;;;;;4.10;3.70;;;;;;;16.82;45.92;103446.28;5095306;28;20032;-57
2022/01/24 07:32:00;;;;;;;4.25;3.55;;;;;;;16.83;45.70;103446.22;5102655;28;20113;-58
2022/01/24 07:34:25;;;;;;;3.95;3.45;;;;;;;16.89;45.68;103451.22;5102631;28;20023;-56
2022/01/24 07:36:51;;;;;;;4.85;4.25;;;;;;;16.95;45.64;103458.06;5101941;28;20036;-57
2022/01/24 07:39:17;;;;;;;4.72;4.25;;;;;;;16.95;45.59;103458.06;5100788;28;20027;-57
2022/01/24 07:41:46;;;;;;;4.88;4.10;;;;;;;16.99;45.58;103456.88;5102069;28;20036;-58
2022/01/24 07:44:13;;;;;;;5.15;4.20;;;;;;;17.02;45.46;103456.69;5101672;28;20042;-56
2022/01/24 07:46:38;;;;;;;4.95;4.00;;;;;;;17.04;45.50;103454.78;5102554;28;20400;-56
2022/01/24 07:49:07;;;;;;;4.85;4.00;;;;;;;17.04;45.37;103451.25;5097975;28;20099;-56
2022/01/24 07:51:34;;;;;;;4.28;3.65;;;;;;;17.06;45.41;103455.56;5101976;28;20053;-57
2022/01/24 07:53:59;;;;;;;3.75;3.38;;;;;;;17.08;45.42;103455.47;5100651;28;20078;-58
2022/01/24 07:56:24;;;;;;;5.57;3.90;;;;;;;17.09;45.39;103451.81;5101232;28;20040;-57
2022/01/24 07:58:50;;;;;;;5.07;3.90;;;;;;;17.12;45.49;103456.97;5100822;28;20034;-58
2022/01/24 08:01:15;;;;;;;4.50;3.85;;;;;;;17.11;45.29;103456.13;5101714;28;20043;-57
2022/01/24 08:03:41;;;;;;;6.35;3.63;;;;;;;17.12;45.24;103449.81;5102307;28;20024;-54
2022/01/24 08:06:06;;;;;;;3.53;3.22;;;;;;;17.14;45.28;103452.41;5102161;28;20024;-57
2022/01/24 08:08:31;;;;;;;4.15;3.33;;;;;;;17.15;45.11;103446.91;5101029;28;20463;-58
2022/01/24 08:10:56;;;;;;;4.80;3.88;;;;;;;17.17;45.16;103454.91;5101231;28;20031;-58
2022/01/24 08:13:22;;;;;;;4.35;3.50;;;;;;;17.17;44.98;103446.84;5101359;28;20056;-58
2022/01/24 08:15:47;;;;;;;4.25;3.85;;;;;;;17.17;45.02;103444.16;5101850;28;20026;-56
2022/01/24 08:18:14;;;;;;;3.78;3.38;;;;;;;17.17;45.05;103452.22;5101221;28;20024;-57
2022/01/24 08:20:40;;;;;;;4.22;3.75;;;;;;;17.19;45.01;103451.13;5102555;28;20062;-56
2022/01/24 08:23:05;;;;;;;3.85;3.35;;;;;;;17.18;45.10;103454.78;5084971;28;20083;-58
2022/01/24 08:25:30;;;;;;;4.40;3.97;;;;;;;17.20;44.90;103455.59;5102644;28;20032;-56
2022/01/24 08:27:56;;;;;;;4.57;3.85;;;;;;;17.21;44.89;103454.63;5102418;28;20028;-58
2022/01/24 08:30:23;;;;;;;5.07;3.40;;;;;;;17.21;45.00;103454.63;5101576;28;20084;-57
2022/01/24 08:32:49;;;;;;;3.85;3.40;;;;;;;17.22;44.82;103460.84;5083539;28;20024;-57
2022/01/24 08:35:16;;;;;;;3.63;3.25;;;;;;;17.23;44.89;103467.94;5101542;28;20063;-55
2022/01/24 08:37:41;;;;;;;3.28;2.97;;;;;;;17.20;44.63;103458.28;5100913;28;20024;-57
2022/01/24 08:40:09;;;;;;;4.18;3.25;;;;;;;17.25;44.77;103471.44;5099419;28;20028;-58
2022/01/24 08:47:37;;;;;;;4.45;3.20;;;;;;;17.28;44.76;103473.03;5082898;28;20016;-58
2022/01/24 08:50:05;;;;;;;3.95;3.20;;;;;;;17.28;44.58;103471.22;5099297;28;20052;-57
2022/01/24 08:52:31;;;;;;;3.53;3.22;;;;;;;17.30;44.56;103474.69;5082175;28;20016;-57
2022/01/24 08:54:56;;;;;;;3.38;3.08;;;;;;;17.30;44.57;103482.75;5100267;28;20035;-57
2022/01/24 08:57:25;;;;;;;3.40;2.95;;;;;;;17.28;44.57;103471.22;5100166;28;20091;-56
2022/01/24 08:59:52;;;;;;;3.15;2.70;;;;;;;17.31;44.56;103475.53;5099988;28;20031;-58
2022/01/24 09:02:18;;;;;;;3.10;2.80;;;;;;;17.32;44.62;103477.25;5101542;28;20035;-57
2022/01/24 09:04:43;;;;;;;3.53;2.92;;;;;;;17.32;44.60;103475.44;5100856;28;20028;-56
2022/01/24 09:07:09;;;;;;;3.33;2.95;;;;;;;17.34;44.55;103480.75;5100998;28;20049;-57
2022/01/24 09:09:36;;;;;;;3.25;2.80;;;;;;;17.35;44.28;103472.56;5099766;28;20115;-57
2022/01/24 09:12:06;;;;;;;3.42;3.00;;;;;;;17.36;44.33;103473.44;5100588;28;20035;-58
2022/01/24 09:14:31;;;;;;;4.05;3.03;;;;;;;17.39;44.31;103479.47;5100744;28;20057;-59
2022/01/24 09:16:57;;;;;;;5.47;2.85;;;;;;;17.38;44.52;103472.38;5098779;28;20056;-56
2022/01/24 09:19:22;;;;;;;4.15;2.97;;;;;;;17.40;44.44;103478.50;5097494;28;20016;-58
2022/01/24 09:21:48;;;;;;;3.95;3.10;;;;;;;17.42;44.38;103481.13;5100643;28;20032;-58
2022/01/24 09:24:13;;;;;;;4.13;2.80;;;;;;;17.40;44.31;103478.50;5082147;28;20058;-58
2022/01/24 09:26:38;;;;;;;3.63;2.92;;;;;;;17.45;44.50;103481.78;5095584;28;20084;-57
2022/01/24 09:29:03;;;;;;;3.25;2.88;;;;;;;17.45;44.33;103479.09;5100103;28;20023;-58
2022/01/24 09:31:29;;;;;;;3.85;2.92;;;;;;;17.47;44.47;103479.88;5104645;28;20038;-57
2022/01/24 09:33:54;;;;;;;3.08;2.58;;;;;;;17.48;44.39;103478.03;5104498;28;20027;-58
2022/01/24 09:36:20;;;;;;;3.30;2.90;;;;;;;17.52;44.36;103484.09;5104721;28;20115;-57
2022/01/24 09:38:45;;;;;;;3.17;2.30;;;;;;;17.53;44.76;103483.13;5102948;28;20020;-58
2022/01/24 09:41:13;;;;;;;2.85;2.45;;;;;;;17.56;44.31;103489.19;5104523;28;20027;-58
2022/01/24 09:43:38;;;;;;;3.53;2.55;;;;;;;17.57;44.34;103488.22;5100293;28;20028;-58
2022/01/24 09:46:03;;;;;;;3.30;2.75;;;;;;;17.56;44.33;103475.72;5104776;28;20028;-59
2022/01/24 09:48:29;;;;;;;2.90;2.60;;;;;;;17.57;44.37;103469.38;5103366;28;20101;-58
2022/01/24 09:50:55;;;;;;;3.20;2.78;;;;;;;17.61;44.32;103478.13;5104458;28;20089;-58
2022/01/24 09:53:22;;;;;;;3.83;2.80;;;;;;;17.61;44.29;103481.69;5103826;28;20035;-57
2022/01/24 09:55:47;;;;;;;3.10;2.60;;;;;;;17.64;44.20;103484.19;5102825;28;20075;-58
2022/01/24 09:58:12;;;;;;;4.25;2.63;;;;;;;17.64;44.08;103484.19;5100377;28;20028;-54
2022/01/24 10:00:38;;;;;;;3.22;2.40;;;;;;;17.65;44.28;103477.84;5104015;28;20096;-58
2022/01/24 10:03:04;;;;;;;3.10;2.00;;;;;;;17.63;44.12;103477.06;5103416;28;20091;-58
2022/01/24 10:05:37;;;;;;;2.67;1.90;;;;;;;17.69;44.41;103478.50;5103326;28;20058;-58
2022/01/24 10:08:05;;;;;;;3.25;2.30;;;;;;;17.69;44.41;103479.38;5084551;28;20589;-56
2022/01/24 10:10:59;;;;;;;2.70;2.35;;;;;;;17.71;44.39;103481.94;5084754;28;20028;-57
2022/01/24 10:16:37;;;;;;;2.40;2.20;;;;;;;17.74;44.27;103474.56;5103449;28;20070;-57
2022/01/24 10:19:04;;;;;;;2.58;2.28;;;;;;;17.75;44.38;103472.75;5100924;28;20051;-58
2022/01/24 10:21:35;;;;;;;3.65;2.50;;;;;;;17.77;44.32;103475.34;5104025;28;20024;-57
2022/01/24 10:24:00;;;;;;;2.53;2.30;;;;;;;17.79;44.61;103476.09;5103793;28;20096;-58
2022/01/24 10:26:26;;;;;;;2.45;2.20;;;;;;;17.78;44.31;103477.94;5103810;28;20536;-58
2022/01/24 10:28:51;;;;;;;2.60;2.35;;;;;;;17.79;44.42;103476.97;5101621;28;20028;-58
2022/01/24 10:31:24;;;;;;;3.10;2.35;;;;;;;17.79;44.41;103479.66;5103596;28;20061;-56
2022/01/24 10:33:51;;;;;;;2.30;2.08;;;;;;;17.81;44.16;103472.38;5103826;28;20067;-57
2022/01/24 10:36:35;;;;;;;3.58;2.03;;;;;;;17.83;44.29;103475.81;5103329;28;20047;-58
2022/01/24 10:39:14;;;;;;;2.42;2.22;;;;;;;17.84;44.12;103472.19;5102106;28;20085;-58
2022/01/24 10:44:26;;;;;;;2.20;2.00;;;;;;;17.87;44.07;103458.50;5101741;28;20035;-61
2022/01/24 10:46:51;;;;;;;2.00;1.70;;;;;;;17.88;44.13;103459.38;5103486;28;20463;-58
2022/01/24 10:49:31;;;;;;;2.95;2.10;;;;;;;17.90;43.85;103452.94;5087487;28;20489;-57
2022/01/24 10:52:11;;;;;;;3.10;2.35;;;;;;;17.91;43.91;103454.66;5102616;28;20028;-58
2022/01/24 10:54:36;;;;;;;2.80;2.38;;;;;;;17.93;44.15;103446.50;5103097;28;20087;-58
2022/01/24 10:57:02;;;;;;;4.28;2.13;;;;;;;17.94;43.89;103443.69;5102319;28;20873;-58
2022/01/24 10:59:27;;;;;;;2.85;2.13;;;;;;;17.96;43.88;103441.75;5101416;28;20591;-58
2022/01/24 11:01:55;;;;;;;3.08;2.33;;;;;;;17.99;43.92;103446.06;5103575;28;20043;-58
2022/01/24 11:04:24;;;;;;;2.20;2.00;;;;;;;18.01;43.73;103445.97;5103148;28;20075;-59
2022/01/24 11:06:51;;;;;;;1.97;1.77;;;;;;;18.04;43.71;103443.09;5102949;28;20039;-58
2022/01/24 11:09:24;;;;;;;2.35;2.00;;;;;;;18.06;43.48;103438.47;5101884;28;20450;-58
2022/01/24 11:11:54;;;;;;;2.08;1.90;;;;;;;18.08;43.48;103436.53;5102424;28;20092;-57
2022/01/24 11:14:21;;;;;;;2.70;1.98;;;;;;;18.10;43.31;103437.31;5101357;28;20085;-58
2022/01/24 11:16:48;;;;;;;2.30;1.75;;;;;;;18.11;43.52;103439.88;5084980;28;20024;-58
2022/01/24 11:19:20;;;;;;;3.08;1.90;;;;;;;18.14;43.26;103441.53;5101778;28;20032;-57
2022/01/24 11:21:46;;;;;;;2.90;2.30;;;;;;;18.14;43.40;103434.31;5102959;28;20270;-57
2022/01/24 11:24:18;;;;;;;2.35;2.15;;;;;;;18.16;43.28;103439.56;5083114;28;20031;-56
2022/01/24 11:26:43;;;;;;;2.10;1.90;;;;;;;18.15;43.25;103440.56;5102269;28;20039;-56
2022/01/24 11:29:09;;;;;;;2.42;1.92;;;;;;;18.15;43.26;103437.84;5079717;28;20092;-56
2022/01/24 11:31:49;;;;;;;2.67;2.38;;;;;;;18.15;43.33;103444.09;5103011;28;20048;-58
2022/01/24 11:34:36;;;;;;;2.88;2.05;;;;;;;18.15;43.23;103441.41;5080869;28;20028;-55
2022/01/24 11:37:03;;;;;;;2.75;2.22;;;;;;;18.14;43.24;103442.38;5083052;28;20020;-58
2022/01/24 11:39:28;;;;;;;2.95;2.00;;;;;;;18.16;43.11;103442.28;5100361;28;20343;-57
2022/01/24 11:41:54;;;;;;;2.20;1.95;;;;;;;18.13;43.04;103437.06;5097670;28;20031;-58
2022/01/24 11:44:22;;;;;;;2.30;2.08;;;;;;;18.16;43.11;103435.06;5101018;28;20039;-58
2022/01/24 11:46:56;;;;;;;3.75;1.98;;;;;;;18.16;43.26;103421.59;5100676;28;20050;-57
2022/01/24 11:49:27;;;;;;;2.63;2.42;;;;;;;18.18;43.31;103421.47;5100082;28;20034;-57
2022/01/24 11:52:11;;;;;;;2.50;2.30;;;;;;;18.21;43.22;103418.59;5098809;28;20038;-57
2022/01/24 11:57:34;;;;;;;2.55;1.95;;;;;;;18.24;43.48;103419.25;5095710;28;20043;-58
2022/01/24 12:00:06;;;;;;;2.17;1.98;;;;;;;18.26;43.30;103421.81;5098564;28;20110;-58
2022/01/24 12:02:46;;;;;;;2.50;1.92;;;;;;;18.28;43.33;103419.06;5102054;28;20091;-58
2022/01/24 12:05:20;;;;;;;2.25;1.90;;;;;;;18.24;43.45;103407.63;5098850;28;20404;-57
2022/01/24 12:07:50;;;;;;;2.30;2.10;;;;;;;18.30;43.51;103414.41;5098426;28;20057;-55
2022/01/24 12:10:38;;;;;;;2.35;2.15;;;;;;;18.32;43.24;103417.88;5082759;28;20051;-58
2022/01/24 12:13:06;;;;;;;2.20;1.90;;;;;;;18.33;43.42;103415.06;5101563;28;20427;-58
2022/01/24 12:15:41;;;;;;;2.38;2.10;;;;;;;18.34;43.27;103414.09;5102268;28;20044;-58
2022/01/24 12:18:20;;;;;;;2.72;2.42;;;;;;;18.36;43.37;103405.94;5101303;28;20028;-58
2022/01/24 12:20:45;;;;;;;;;;;;;;;18.34;43.49;103413.22;5098474;28;20081;-59
2022/01/24 12:23:17;;;;;;;2.33;2.13;;;;;;;18.37;43.26;103410.34;5102239;28;19911;-58
2022/01/24 12:26:02;;;;;;;3.97;3.08;;;;;;;18.38;43.25;103404.84;5101358;28;20032;-58
2022/01/24 12:28:42;;;;;;;2.60;2.40;;;;;;;18.41;43.47;103409.16;5080442;28;20039;-58
2022/01/24 12:31:13;;;;;;;2.45;2.25;;;;;;;18.41;43.45;103410.03;5099260;28;20429;-58
2022/01/24 12:33:44;;;;;;;2.83;2.40;;;;;;;18.45;43.20;103418.75;5101655;28;20049;-56
2022/01/24 12:36:12;;;;;;;3.75;2.60;;;;;;;18.45;43.28;103419.63;5083455;28;20052;-58
2022/01/24 12:38:43;;;;;;;2.60;2.30;;;;;;;18.46;43.33;103415.09;5100659;28;20053;-58
2022/01/24 12:41:27;;;;;;;3.35;2.70;;;;;;;18.47;43.22;103414.97;5100035;28;20117;-56
2022/01/24 12:46:28;;;;;;;3.72;2.70;;;;;;;18.49;43.10;103414.91;5101369;28;20028;-58
2022/01/24 12:48:56;;;;;;;2.85;2.55;;;;;;;18.50;43.13;103408.53;5100753;28;20051;-59
2022/01/24 12:51:22;;;;;;;2.85;2.50;;;;;;;18.51;43.24;103412.09;5084705;28;20027;-59
2022/01/24 12:53:49;;;;;;;3.47;2.50;;;;;;;18.51;43.22;103410.25;5097840;28;20469;-58
2022/01/24 12:56:16;;;;;;;3.30;2.53;;;;;;;18.52;42.96;103403.91;5098952;28;20040;-57
2022/01/24 12:58:43;;;;;;;3.45;2.88;;;;;;;18.52;42.91;103403.91;5102731;28;20114;-58
2022/01/24 13:01:31;;;;;;;3.53;2.50;;;;;;;18.53;42.98;103407.47;5103591;28;20091;-58
2022/01/24 13:04:02;;;;;;;4.07;2.90;;;;;;;18.54;43.16;103401.09;5103011;28;20024;-58
2022/01/24 13:06:33;;;;;;;3.20;2.53;;;;;;;18.54;42.84;103399.28;5102743;28;20589;-57